sensor_id;sensor_type;location;lat;lon;timestamp;temperature;humidity
1367;DHT22;16877;48.810;9.282;2022-11-15T00:01:26;19.30;51.80
1367;DHT22;16877;48.810;9.282;2022-11-15T00:03:53;19.40;51.90
1367;DHT22;16877;48.810;9.282;2022-11-15T00:06:21;19.40;52.00
1367;DHT22;16877;48.810;9.282;2022-11-15T00:08:48;19.40;52.10
1367;DHT22;16877;48.810;9.282;2022-11-15T00:11:15;19.50;52.20
1367;DHT22;16877;48.810;9.282;2022-11-15T00:13:41;19.50;52.30
1367;DHT22;16877;48.810;9.282;2022-11-15T00:16:08;19.60;53.10
1367;DHT22;16877;48.810;9.282;2022-11-15T00:18:35;19.60;52.60
1367;DHT22;16877;48.810;9.282;2022-11-15T00:21:04;19.60;52.60
1367;DHT22;16877;48.810;9.282;2022-11-15T00:23:32;19.60;52.70
1367;DHT22;16877;48.810;9.282;2022-11-15T00:25:59;19.60;52.70
1367;DHT22;16877;48.810;9.282;2022-11-15T00:28:26;19.60;52.70
1367;DHT22;16877;48.810;9.282;2022-11-15T00:30:53;19.60;52.60
1367;DHT22;16877;48.810;9.282;2022-11-15T00:33:19;19.60;52.60
1367;DHT22;16877;48.810;9.282;2022-11-15T00:35:46;19.60;52.60
1367;DHT22;16877;48.810;9.282;2022-11-15T00:38:13;19.60;52.70
1367;DHT22;16877;48.810;9.282;2022-11-15T00:40:41;19.60;52.70
1367;DHT22;16877;48.810;9.282;2022-11-15T00:43:08;19.60;52.80
1367;DHT22;16877;48.810;9.282;2022-11-15T00:45:34;19.60;52.80
1367;DHT22;16877;48.810;9.282;2022-11-15T00:48:01;19.60;52.70
1367;DHT22;16877;48.810;9.282;2022-11-15T00:50:28;19.60;52.90
1367;DHT22;16877;48.810;9.282;2022-11-15T00:52:54;19.60;52.90
1367;DHT22;16877;48.810;9.282;2022-11-15T00:55:21;19.60;52.90
1367;DHT22;16877;48.810;9.282;2022-11-15T00:57:49;19.60;52.90
1367;DHT22;16877;48.810;9.282;2022-11-15T01:00:16;19.60;52.90
1367;DHT22;16877;48.810;9.282;2022-11-15T01:02:43;19.60;53.00
1367;DHT22;16877;48.810;9.282;2022-11-15T01:05:10;19.60;53.00
1367;DHT22;16877;48.810;9.282;2022-11-15T01:07:36;19.60;53.10
1367;DHT22;16877;48.810;9.282;2022-11-15T01:10:04;19.50;53.10
1367;DHT22;16877;48.810;9.282;2022-11-15T01:12:30;19.50;53.10
1367;DHT22;16877;48.810;9.282;2022-11-15T01:14:59;19.50;53.10
1367;DHT22;16877;48.810;9.282;2022-11-15T01:17:26;19.50;53.10
1367;DHT22;16877;48.810;9.282;2022-11-15T01:19:52;19.50;53.10
1367;DHT22;16877;48.810;9.282;2022-11-15T01:22:19;19.50;53.10
1367;DHT22;16877;48.810;9.282;2022-11-15T01:24:46;19.50;53.10
1367;DHT22;16877;48.810;9.282;2022-11-15T01:27:12;19.50;53.70
1367;DHT22;16877;48.810;9.282;2022-11-15T01:29:39;19.50;53.10
1367;DHT22;16877;48.810;9.282;2022-11-15T01:32:07;19.40;53.00
1367;DHT22;16877;48.810;9.282;2022-11-15T01:34:34;19.40;53.00
1367;DHT22;16877;48.810;9.282;2022-11-15T01:37:01;19.40;53.00
1367;DHT22;16877;48.810;9.282;2022-11-15T01:39:28;19.40;53.00
1367;DHT22;16877;48.810;9.282;2022-11-15T01:41:54;19.40;53.00
1367;DHT22;16877;48.810;9.282;2022-11-15T01:44:42;19.40;53.10
1367;DHT22;16877;48.810;9.282;2022-11-15T01:47:13;19.40;53.00
1367;DHT22;16877;48.810;9.282;2022-11-15T01:49:48;19.30;52.90
1367;DHT22;16877;48.810;9.282;2022-11-15T01:52:19;19.30;53.00
1367;DHT22;16877;48.810;9.282;2022-11-15T01:54:46;19.30;53.00
1367;DHT22;16877;48.810;9.282;2022-11-15T01:57:13;19.30;53.00
1367;DHT22;16877;48.810;9.282;2022-11-15T01:59:42;19.20;53.00
1367;DHT22;16877;48.810;9.282;2022-11-15T02:02:11;19.30;53.00
1367;DHT22;16877;48.810;9.282;2022-11-15T02:04:43;19.20;52.90
1367;DHT22;16877;48.810;9.282;2022-11-15T02:07:12;19.20;53.00
1367;DHT22;16877;48.810;9.282;2022-11-15T02:09:40;19.10;53.00
1367;DHT22;16877;48.810;9.282;2022-11-15T02:12:08;19.10;53.00
1367;DHT22;16877;48.810;9.282;2022-11-15T02:14:37;19.10;53.10
1367;DHT22;16877;48.810;9.282;2022-11-15T02:17:16;19.10;53.10
1367;DHT22;16877;48.810;9.282;2022-11-15T02:22:50;19.10;53.20
1367;DHT22;16877;48.810;9.282;2022-11-15T02:25:38;19.10;53.20
1367;DHT22;16877;48.810;9.282;2022-11-15T02:28:27;19.10;53.20
1367;DHT22;16877;48.810;9.282;2022-11-15T02:31:04;19.10;53.30
1367;DHT22;16877;48.810;9.282;2022-11-15T02:33:36;19.10;53.40
1367;DHT22;16877;48.810;9.282;2022-11-15T02:36:11;19.10;53.40
1367;DHT22;16877;48.810;9.282;2022-11-15T02:38:45;19.10;53.40
1367;DHT22;16877;48.810;9.282;2022-11-15T02:41:16;19.10;53.50
1367;DHT22;16877;48.810;9.282;2022-11-15T02:43:47;19.00;53.40
1367;DHT22;16877;48.810;9.282;2022-11-15T02:46:29;19.00;53.40
1367;DHT22;16877;48.810;9.282;2022-11-15T02:49:17;19.00;53.40
1367;DHT22;16877;48.810;9.282;2022-11-15T02:51:46;19.00;53.40
1367;DHT22;16877;48.810;9.282;2022-11-15T02:54:17;19.00;53.40
1367;DHT22;16877;48.810;9.282;2022-11-15T02:56:47;19.00;53.30
1367;DHT22;16877;48.810;9.282;2022-11-15T02:59:29;19.00;53.30
1367;DHT22;16877;48.810;9.282;2022-11-15T03:02:12;18.90;53.20
1367;DHT22;16877;48.810;9.282;2022-11-15T03:04:44;18.90;53.20
1367;DHT22;16877;48.810;9.282;2022-11-15T03:07:22;18.90;53.30
1367;DHT22;16877;48.810;9.282;2022-11-15T03:09:53;18.90;53.30
1367;DHT22;16877;48.810;9.282;2022-11-15T03:12:25;18.90;53.40
1367;DHT22;16877;48.810;9.282;2022-11-15T03:14:57;18.90;53.40
1367;DHT22;16877;48.810;9.282;2022-11-15T03:17:29;18.90;53.40
1367;DHT22;16877;48.810;9.282;2022-11-15T03:19:59;18.90;53.40
1367;DHT22;16877;48.810;9.282;2022-11-15T03:22:29;18.90;53.50
1367;DHT22;16877;48.810;9.282;2022-11-15T03:25:00;18.90;53.50
1367;DHT22;16877;48.810;9.282;2022-11-15T03:27:31;18.90;53.50
1367;DHT22;16877;48.810;9.282;2022-11-15T03:30:02;18.90;53.50
1367;DHT22;16877;48.810;9.282;2022-11-15T03:32:34;18.90;53.50
1367;DHT22;16877;48.810;9.282;2022-11-15T03:35:05;18.90;53.60
1367;DHT22;16877;48.810;9.282;2022-11-15T03:37:35;18.90;53.60
1367;DHT22;16877;48.810;9.282;2022-11-15T03:40:04;18.90;54.10
1367;DHT22;16877;48.810;9.282;2022-11-15T03:42:38;18.90;53.60
1367;DHT22;16877;48.810;9.282;2022-11-15T03:45:13;18.90;53.60
1367;DHT22;16877;48.810;9.282;2022-11-15T03:47:45;18.90;53.70
1367;DHT22;16877;48.810;9.282;2022-11-15T03:50:17;18.80;53.70
1367;DHT22;16877;48.810;9.282;2022-11-15T03:52:45;18.80;53.70
1367;DHT22;16877;48.810;9.282;2022-11-15T03:55:15;18.80;53.70
1367;DHT22;16877;48.810;9.282;2022-11-15T03:57:43;18.80;53.70
1367;DHT22;16877;48.810;9.282;2022-11-15T04:00:10;18.80;53.70
1367;DHT22;16877;48.810;9.282;2022-11-15T04:02:37;18.80;53.70
1367;DHT22;16877;48.810;9.282;2022-11-15T04:05:06;18.80;53.70
1367;DHT22;16877;48.810;9.282;2022-11-15T04:07:32;18.80;53.80
1367;DHT22;16877;48.810;9.282;2022-11-15T04:09:59;18.80;53.80
1367;DHT22;16877;48.810;9.282;2022-11-15T04:12:29;18.70;53.70
1367;DHT22;16877;48.810;9.282;2022-11-15T04:15:00;18.70;53.80
1367;DHT22;16877;48.810;9.282;2022-11-15T04:17:37;18.80;53.90
1367;DHT22;16877;48.810;9.282;2022-11-15T04:20:09;18.70;53.90
1367;DHT22;16877;48.810;9.282;2022-11-15T04:22:54;18.70;53.80
1367;DHT22;16877;48.810;9.282;2022-11-15T04:25:39;18.70;53.90
1367;DHT22;16877;48.810;9.282;2022-11-15T04:28:06;18.70;53.90
1367;DHT22;16877;48.810;9.282;2022-11-15T04:30:33;18.70;53.90
1367;DHT22;16877;48.810;9.282;2022-11-15T04:32:59;18.70;54.00
1367;DHT22;16877;48.810;9.282;2022-11-15T04:35:28;18.60;53.90
1367;DHT22;16877;48.810;9.282;2022-11-15T04:37:55;18.70;54.00
1367;DHT22;16877;48.810;9.282;2022-11-15T04:40:22;18.70;54.10
1367;DHT22;16877;48.810;9.282;2022-11-15T04:42:48;18.70;54.30
1367;DHT22;16877;48.810;9.282;2022-11-15T04:45:15;18.70;54.10
1367;DHT22;16877;48.810;9.282;2022-11-15T04:47:44;18.70;54.10
1367;DHT22;16877;48.810;9.282;2022-11-15T04:50:11;18.70;54.10
1367;DHT22;16877;48.810;9.282;2022-11-15T04:52:40;18.60;54.10
1367;DHT22;16877;48.810;9.282;2022-11-15T04:55:08;18.60;54.10
1367;DHT22;16877;48.810;9.282;2022-11-15T04:57:34;18.60;54.10
1367;DHT22;16877;48.810;9.282;2022-11-15T05:00:03;18.60;54.20
1367;DHT22;16877;48.810;9.282;2022-11-15T05:02:29;18.60;54.10
1367;DHT22;16877;48.810;9.282;2022-11-15T05:05:16;18.60;54.20
1367;DHT22;16877;48.810;9.282;2022-11-15T05:07:43;18.60;54.10
1367;DHT22;16877;48.810;9.282;2022-11-15T05:10:10;18.60;54.20
1367;DHT22;16877;48.810;9.282;2022-11-15T05:12:37;18.60;54.20
1367;DHT22;16877;48.810;9.282;2022-11-15T05:15:05;18.60;54.20
1367;DHT22;16877;48.810;9.282;2022-11-15T05:17:32;18.60;54.20
1367;DHT22;16877;48.810;9.282;2022-11-15T05:19:58;18.60;54.20
1367;DHT22;16877;48.810;9.282;2022-11-15T05:22:26;18.60;54.20
1367;DHT22;16877;48.810;9.282;2022-11-15T05:24:54;18.60;54.20
1367;DHT22;16877;48.810;9.282;2022-11-15T05:27:21;18.50;54.10
1367;DHT22;16877;48.810;9.282;2022-11-15T05:29:47;18.60;54.20
1367;DHT22;16877;48.810;9.282;2022-11-15T05:32:14;18.50;54.10
1367;DHT22;16877;48.810;9.282;2022-11-15T05:34:43;18.50;54.20
1367;DHT22;16877;48.810;9.282;2022-11-15T05:37:09;18.50;54.20
1367;DHT22;16877;48.810;9.282;2022-11-15T05:39:36;18.50;54.20
1367;DHT22;16877;48.810;9.282;2022-11-15T05:42:07;18.50;54.10
1367;DHT22;16877;48.810;9.282;2022-11-15T05:44:36;18.50;54.20
1367;DHT22;16877;48.810;9.282;2022-11-15T05:47:04;18.50;54.20
1367;DHT22;16877;48.810;9.282;2022-11-15T05:49:36;18.40;54.10
1367;DHT22;16877;48.810;9.282;2022-11-15T05:52:06;18.50;54.20
1367;DHT22;16877;48.810;9.282;2022-11-15T05:54:34;18.40;54.20
1367;DHT22;16877;48.810;9.282;2022-11-15T05:57:02;18.40;54.20
1367;DHT22;16877;48.810;9.282;2022-11-15T05:59:32;18.40;54.20
1367;DHT22;16877;48.810;9.282;2022-11-15T06:01:59;18.40;54.20
1367;DHT22;16877;48.810;9.282;2022-11-15T06:04:26;18.40;54.20
1367;DHT22;16877;48.810;9.282;2022-11-15T06:06:52;18.40;54.20
1367;DHT22;16877;48.810;9.282;2022-11-15T06:09:19;18.40;54.20
1367;DHT22;16877;48.810;9.282;2022-11-15T06:11:46;18.40;54.30
1367;DHT22;16877;48.810;9.282;2022-11-15T06:14:13;18.40;54.20
1367;DHT22;16877;48.810;9.282;2022-11-15T06:16:41;18.30;54.10
1367;DHT22;16877;48.810;9.282;2022-11-15T06:19:08;18.30;54.20
1367;DHT22;16877;48.810;9.282;2022-11-15T06:21:34;18.30;54.20
1367;DHT22;16877;48.810;9.282;2022-11-15T06:24:01;18.30;54.10
1367;DHT22;16877;48.810;9.282;2022-11-15T06:26:28;18.30;54.20
1367;DHT22;16877;48.810;9.282;2022-11-15T06:28:54;18.30;54.20
1367;DHT22;16877;48.810;9.282;2022-11-15T06:31:21;18.30;54.20
1367;DHT22;16877;48.810;9.282;2022-11-15T06:33:49;18.30;54.20
1367;DHT22;16877;48.810;9.282;2022-11-15T06:36:16;18.30;54.20
1367;DHT22;16877;48.810;9.282;2022-11-15T06:38:43;18.30;54.20
1367;DHT22;16877;48.810;9.282;2022-11-15T06:41:10;18.30;54.20
1367;DHT22;16877;48.810;9.282;2022-11-15T06:43:38;18.30;54.20
1367;DHT22;16877;48.810;9.282;2022-11-15T06:46:06;18.30;54.20
1367;DHT22;16877;48.810;9.282;2022-11-15T06:48:33;18.40;54.30
1367;DHT22;16877;48.810;9.282;2022-11-15T06:51:03;18.40;54.30
1367;DHT22;16877;48.810;9.282;2022-11-15T06:53:31;18.40;54.30
1367;DHT22;16877;48.810;9.282;2022-11-15T06:55:59;18.40;54.30
1367;DHT22;16877;48.810;9.282;2022-11-15T06:58:26;18.50;54.30
1367;DHT22;16877;48.810;9.282;2022-11-15T07:00:52;18.50;54.30
1367;DHT22;16877;48.810;9.282;2022-11-15T07:03:19;18.50;54.30
1367;DHT22;16877;48.810;9.282;2022-11-15T07:05:51;18.60;54.30
1367;DHT22;16877;48.810;9.282;2022-11-15T07:08:20;18.70;54.30
1367;DHT22;16877;48.810;9.282;2022-11-15T07:10:47;18.70;54.30
1367;DHT22;16877;48.810;9.282;2022-11-15T07:13:13;18.70;54.20
1367;DHT22;16877;48.810;9.282;2022-11-15T07:15:40;18.80;54.20
1367;DHT22;16877;48.810;9.282;2022-11-15T07:18:07;18.80;54.20
1367;DHT22;16877;48.810;9.282;2022-11-15T07:20:35;18.90;54.20
1367;DHT22;16877;48.810;9.282;2022-11-15T07:23:02;19.00;54.10
1367;DHT22;16877;48.810;9.282;2022-11-15T07:25:31;19.00;56.80
1367;DHT22;16877;48.810;9.282;2022-11-15T07:27:58;19.20;57.30
1367;DHT22;16877;48.810;9.282;2022-11-15T07:30:26;19.30;56.10
1367;DHT22;16877;48.810;9.282;2022-11-15T07:32:53;19.40;55.60
1367;DHT22;16877;48.810;9.282;2022-11-15T07:35:20;19.50;55.30
1367;DHT22;16877;48.810;9.282;2022-11-15T07:37:53;19.50;55.10
1367;DHT22;16877;48.810;9.282;2022-11-15T07:40:20;19.60;55.00
1367;DHT22;16877;48.810;9.282;2022-11-15T07:42:48;19.60;54.90
1367;DHT22;16877;48.810;9.282;2022-11-15T07:45:22;19.70;55.00
1367;DHT22;16877;48.810;9.282;2022-11-15T07:47:51;19.90;57.10
1367;DHT22;16877;48.810;9.282;2022-11-15T07:50:18;20.10;56.10
1367;DHT22;16877;48.810;9.282;2022-11-15T07:52:45;20.20;55.10
1367;DHT22;16877;48.810;9.282;2022-11-15T07:55:12;20.20;56.20
1367;DHT22;16877;48.810;9.282;2022-11-15T07:57:39;20.40;56.20
1367;DHT22;16877;48.810;9.282;2022-11-15T08:00:08;20.60;54.20
1367;DHT22;16877;48.810;9.282;2022-11-15T08:02:35;20.60;54.00
1367;DHT22;16877;48.810;9.282;2022-11-15T08:05:02;20.70;54.20
1367;DHT22;16877;48.810;9.282;2022-11-15T08:07:30;20.80;54.40
1367;DHT22;16877;48.810;9.282;2022-11-15T08:09:57;20.90;54.40
1367;DHT22;16877;48.810;9.282;2022-11-15T08:12:24;21.00;54.30
1367;DHT22;16877;48.810;9.282;2022-11-15T08:14:50;21.20;54.30
1367;DHT22;16877;48.810;9.282;2022-11-15T08:17:18;21.20;54.90
1367;DHT22;16877;48.810;9.282;2022-11-15T08:19:45;21.30;54.40
1367;DHT22;16877;48.810;9.282;2022-11-15T08:22:12;21.40;54.10
1367;DHT22;16877;48.810;9.282;2022-11-15T08:24:39;21.50;54.70
1367;DHT22;16877;48.810;9.282;2022-11-15T08:27:06;21.60;54.60
1367;DHT22;16877;48.810;9.282;2022-11-15T08:29:40;21.70;54.30
1367;DHT22;16877;48.810;9.282;2022-11-15T08:32:07;21.90;53.90
1367;DHT22;16877;48.810;9.282;2022-11-15T08:34:35;21.80;53.60
1367;DHT22;16877;48.810;9.282;2022-11-15T08:37:02;21.80;53.50
1367;DHT22;16877;48.810;9.282;2022-11-15T08:39:29;21.90;54.20
1367;DHT22;16877;48.810;9.282;2022-11-15T08:41:55;22.00;54.10
1367;DHT22;16877;48.810;9.282;2022-11-15T08:44:22;22.00;54.00
1367;DHT22;16877;48.810;9.282;2022-11-15T08:46:50;22.10;53.90
1367;DHT22;16877;48.810;9.282;2022-11-15T08:49:16;22.20;53.30
1367;DHT22;16877;48.810;9.282;2022-11-15T08:51:45;22.20;53.00
1367;DHT22;16877;48.810;9.282;2022-11-15T08:54:11;22.20;52.90
1367;DHT22;16877;48.810;9.282;2022-11-15T08:56:38;22.30;52.90
1367;DHT22;16877;48.810;9.282;2022-11-15T08:59:05;22.50;53.00
1367;DHT22;16877;48.810;9.282;2022-11-15T09:01:31;22.70;53.00
1367;DHT22;16877;48.810;9.282;2022-11-15T09:03:58;22.90;52.90
1367;DHT22;16877;48.810;9.282;2022-11-15T09:06:25;23.10;52.70
1367;DHT22;16877;48.810;9.282;2022-11-15T09:08:53;23.40;52.60
1367;DHT22;16877;48.810;9.282;2022-11-15T09:11:20;23.60;52.50
1367;DHT22;16877;48.810;9.282;2022-11-15T09:13:47;23.90;52.30
1367;DHT22;16877;48.810;9.282;2022-11-15T09:16:14;24.20;52.20
1367;DHT22;16877;48.810;9.282;2022-11-15T09:18:41;24.50;52.00
1367;DHT22;16877;48.810;9.282;2022-11-15T09:21:08;24.80;51.80
1367;DHT22;16877;48.810;9.282;2022-11-15T09:23:35;25.00;51.70
1367;DHT22;16877;48.810;9.282;2022-11-15T09:26:04;25.30;51.20
1367;DHT22;16877;48.810;9.282;2022-11-15T09:28:32;25.40;50.90
1367;DHT22;16877;48.810;9.282;2022-11-15T09:31:00;25.50;50.40
1367;DHT22;16877;48.810;9.282;2022-11-15T09:33:27;25.60;50.20
1367;DHT22;16877;48.810;9.282;2022-11-15T09:35:57;25.60;50.10
1367;DHT22;16877;48.810;9.282;2022-11-15T09:38:26;25.60;49.70
1367;DHT22;16877;48.810;9.282;2022-11-15T09:41:20;25.70;49.60
1367;DHT22;16877;48.810;9.282;2022-11-15T09:43:56;25.70;49.40
1367;DHT22;16877;48.810;9.282;2022-11-15T09:46:32;25.90;49.50
1367;DHT22;16877;48.810;9.282;2022-11-15T09:49:02;26.10;49.50
1367;DHT22;16877;48.810;9.282;2022-11-15T09:51:30;26.40;49.50
1367;DHT22;16877;48.810;9.282;2022-11-15T09:54:04;26.60;49.30
1367;DHT22;16877;48.810;9.282;2022-11-15T09:56:36;26.80;49.10
1367;DHT22;16877;48.810;9.282;2022-11-15T09:59:23;27.00;48.80
1367;DHT22;16877;48.810;9.282;2022-11-15T10:01:59;27.30;48.70
1367;DHT22;16877;48.810;9.282;2022-11-15T10:04:27;27.70;48.40
1367;DHT22;16877;48.810;9.282;2022-11-15T10:07:02;27.90;48.20
1367;DHT22;16877;48.810;9.282;2022-11-15T10:09:35;28.20;47.80
1367;DHT22;16877;48.810;9.282;2022-11-15T10:12:06;28.20;47.50
1367;DHT22;16877;48.810;9.282;2022-11-15T10:14:34;28.30;47.10
1367;DHT22;16877;48.810;9.282;2022-11-15T10:17:17;28.20;46.90
1367;DHT22;16877;48.810;9.282;2022-11-15T10:19:56;28.20;46.50
1367;DHT22;16877;48.810;9.282;2022-11-15T10:22:27;28.10;46.70
1367;DHT22;16877;48.810;9.282;2022-11-15T10:25:11;28.00;46.50
1367;DHT22;16877;48.810;9.282;2022-11-15T10:27:41;27.90;46.60
1367;DHT22;16877;48.810;9.282;2022-11-15T10:30:11;27.80;46.40
1367;DHT22;16877;48.810;9.282;2022-11-15T10:32:40;27.80;46.30
1367;DHT22;16877;48.810;9.282;2022-11-15T10:35:20;27.60;46.10
1367;DHT22;16877;48.810;9.282;2022-11-15T10:37:47;27.50;46.10
1367;DHT22;16877;48.810;9.282;2022-11-15T10:40:20;27.40;46.10
1367;DHT22;16877;48.810;9.282;2022-11-15T10:43:04;27.30;46.20
1367;DHT22;16877;48.810;9.282;2022-11-15T10:45:33;27.10;46.20
1367;DHT22;16877;48.810;9.282;2022-11-15T10:48:19;27.00;46.30
1367;DHT22;16877;48.810;9.282;2022-11-15T10:50:47;27.00;47.20
1367;DHT22;16877;48.810;9.282;2022-11-15T10:53:20;26.90;47.30
1367;DHT22;16877;48.810;9.282;2022-11-15T10:55:50;26.80;47.50
1367;DHT22;16877;48.810;9.282;2022-11-15T10:58:32;26.70;47.50
1367;DHT22;16877;48.810;9.282;2022-11-15T11:01:09;26.60;47.50
1367;DHT22;16877;48.810;9.282;2022-11-15T11:03:38;26.50;47.70
1367;DHT22;16877;48.810;9.282;2022-11-15T11:06:08;26.40;47.80
1367;DHT22;16877;48.810;9.282;2022-11-15T11:08:35;26.30;47.80
1367;DHT22;16877;48.810;9.282;2022-11-15T11:11:04;26.20;47.80
1367;DHT22;16877;48.810;9.282;2022-11-15T11:13:34;26.10;47.80
1367;DHT22;16877;48.810;9.282;2022-11-15T11:16:27;26.00;47.60
1367;DHT22;16877;48.810;9.282;2022-11-15T11:19:04;25.80;47.30
1367;DHT22;16877;48.810;9.282;2022-11-15T11:21:41;25.70;47.10
1367;DHT22;16877;48.810;9.282;2022-11-15T11:24:16;25.50;46.90
1367;DHT22;16877;48.810;9.282;2022-11-15T11:26:51;25.30;46.70
1367;DHT22;16877;48.810;9.282;2022-11-15T11:29:31;25.20;46.50
1367;DHT22;16877;48.810;9.282;2022-11-15T11:32:05;25.10;46.10
1367;DHT22;16877;48.810;9.282;2022-11-15T11:34:50;24.90;46.20
1367;DHT22;16877;48.810;9.282;2022-11-15T11:37:26;24.80;46.10
1367;DHT22;16877;48.810;9.282;2022-11-15T11:40:10;24.80;46.30
1367;DHT22;16877;48.810;9.282;2022-11-15T11:42:47;24.80;46.20
1367;DHT22;16877;48.810;9.282;2022-11-15T11:45:21;24.80;46.40
1367;DHT22;16877;48.810;9.282;2022-11-15T11:47:55;24.70;46.30
1367;DHT22;16877;48.810;9.282;2022-11-15T11:50:26;24.60;46.30
1367;DHT22;16877;48.810;9.282;2022-11-15T11:52:57;24.60;47.20
1367;DHT22;16877;48.810;9.282;2022-11-15T11:55:29;24.50;46.70
1367;DHT22;16877;48.810;9.282;2022-11-15T11:58:04;24.40;46.60
1367;DHT22;16877;48.810;9.282;2022-11-15T12:00:37;24.40;47.00
1367;DHT22;16877;48.810;9.282;2022-11-15T12:03:09;24.40;47.20
1367;DHT22;16877;48.810;9.282;2022-11-15T12:05:40;24.40;47.30
1367;DHT22;16877;48.810;9.282;2022-11-15T12:08:22;24.40;47.60
1367;DHT22;16877;48.810;9.282;2022-11-15T12:10:54;24.50;47.80
1367;DHT22;16877;48.810;9.282;2022-11-15T12:13:25;24.50;47.70
1367;DHT22;16877;48.810;9.282;2022-11-15T12:16:07;24.50;47.90
1367;DHT22;16877;48.810;9.282;2022-11-15T12:18:35;24.60;48.10
1367;DHT22;16877;48.810;9.282;2022-11-15T12:21:06;24.60;48.10
1367;DHT22;16877;48.810;9.282;2022-11-15T12:23:39;24.70;48.00
1367;DHT22;16877;48.810;9.282;2022-11-15T12:26:10;24.70;48.00
1367;DHT22;16877;48.810;9.282;2022-11-15T12:28:40;24.60;48.00
1367;DHT22;16877;48.810;9.282;2022-11-15T12:31:15;24.60;48.10
1367;DHT22;16877;48.810;9.282;2022-11-15T12:33:46;24.60;48.20
1367;DHT22;16877;48.810;9.282;2022-11-15T12:36:32;24.60;48.30
1367;DHT22;16877;48.810;9.282;2022-11-15T12:39:02;24.50;48.40
1367;DHT22;16877;48.810;9.282;2022-11-15T12:41:30;24.50;48.30
1367;DHT22;16877;48.810;9.282;2022-11-15T12:43:58;24.40;48.30
1367;DHT22;16877;48.810;9.282;2022-11-15T12:47:00;24.40;48.40
1367;DHT22;16877;48.810;9.282;2022-11-15T12:49:44;24.30;48.40
1367;DHT22;16877;48.810;9.282;2022-11-15T12:52:11;24.30;48.50
1367;DHT22;16877;48.810;9.282;2022-11-15T12:54:51;24.30;48.70
1367;DHT22;16877;48.810;9.282;2022-11-15T12:57:41;24.30;48.90
1367;DHT22;16877;48.810;9.282;2022-11-15T13:00:37;24.20;48.80
1367;DHT22;16877;48.810;9.282;2022-11-15T13:03:36;24.20;49.00
1367;DHT22;16877;48.810;9.282;2022-11-15T13:06:40;24.10;49.20
1367;DHT22;16877;48.810;9.282;2022-11-15T13:12:08;24.10;49.20
1367;DHT22;16877;48.810;9.282;2022-11-15T13:14:47;24.00;49.10
1367;DHT22;16877;48.810;9.282;2022-11-15T13:17:27;24.00;49.20
1367;DHT22;16877;48.810;9.282;2022-11-15T13:19:59;23.90;49.00
1367;DHT22;16877;48.810;9.282;2022-11-15T13:22:27;23.90;49.10
1367;DHT22;16877;48.810;9.282;2022-11-15T13:25:15;23.90;49.10
1367;DHT22;16877;48.810;9.282;2022-11-15T13:27:44;23.80;49.00
1367;DHT22;16877;48.810;9.282;2022-11-15T13:30:16;23.70;49.10
1367;DHT22;16877;48.810;9.282;2022-11-15T13:32:45;23.70;49.00
1367;DHT22;16877;48.810;9.282;2022-11-15T13:35:19;23.60;49.00
1367;DHT22;16877;48.810;9.282;2022-11-15T13:37:47;23.60;48.90
1367;DHT22;16877;48.810;9.282;2022-11-15T13:40:23;23.50;49.10
1367;DHT22;16877;48.810;9.282;2022-11-15T13:42:52;23.50;49.00
1367;DHT22;16877;48.810;9.282;2022-11-15T13:45:19;23.40;49.00
1367;DHT22;16877;48.810;9.282;2022-11-15T13:47:52;23.40;49.10
1367;DHT22;16877;48.810;9.282;2022-11-15T13:50:21;23.40;49.00
1367;DHT22;16877;48.810;9.282;2022-11-15T13:52:48;23.40;49.10
1367;DHT22;16877;48.810;9.282;2022-11-15T13:55:18;23.30;49.00
1367;DHT22;16877;48.810;9.282;2022-11-15T13:57:48;23.30;49.00
1367;DHT22;16877;48.810;9.282;2022-11-15T14:00:28;23.30;49.10
1367;DHT22;16877;48.810;9.282;2022-11-15T14:02:57;23.20;48.90
1367;DHT22;16877;48.810;9.282;2022-11-15T14:05:32;23.20;48.90
1367;DHT22;16877;48.810;9.282;2022-11-15T14:08:01;23.10;48.80
1367;DHT22;16877;48.810;9.282;2022-11-15T14:10:30;23.10;48.80
1367;DHT22;16877;48.810;9.282;2022-11-15T14:12:57;23.00;48.70
1367;DHT22;16877;48.810;9.282;2022-11-15T14:15:28;23.00;48.80
1367;DHT22;16877;48.810;9.282;2022-11-15T14:17:55;22.90;48.70
1367;DHT22;16877;48.810;9.282;2022-11-15T14:20:29;22.90;48.70
1367;DHT22;16877;48.810;9.282;2022-11-15T14:22:58;22.80;48.90
1367;DHT22;16877;48.810;9.282;2022-11-15T14:25:26;22.80;48.90
1367;DHT22;16877;48.810;9.282;2022-11-15T14:28:12;22.80;49.00
1367;DHT22;16877;48.810;9.282;2022-11-15T14:30:39;22.70;49.10
1367;DHT22;16877;48.810;9.282;2022-11-15T14:33:18;22.60;49.20
1367;DHT22;16877;48.810;9.282;2022-11-15T14:35:45;22.60;49.40
1367;DHT22;16877;48.810;9.282;2022-11-15T14:38:14;22.60;49.50
1367;DHT22;16877;48.810;9.282;2022-11-15T14:40:40;22.60;49.80
1367;DHT22;16877;48.810;9.282;2022-11-15T14:43:09;22.60;50.10
1367;DHT22;16877;48.810;9.282;2022-11-15T14:45:37;22.60;50.20
1367;DHT22;16877;48.810;9.282;2022-11-15T14:48:03;22.60;50.30
1367;DHT22;16877;48.810;9.282;2022-11-15T14:50:32;22.50;50.30
1367;DHT22;16877;48.810;9.282;2022-11-15T14:52:59;22.50;50.50
1367;DHT22;16877;48.810;9.282;2022-11-15T14:55:29;22.50;50.40
1367;DHT22;16877;48.810;9.282;2022-11-15T14:57:57;22.50;50.60
1367;DHT22;16877;48.810;9.282;2022-11-15T15:00:24;22.50;50.80
1367;DHT22;16877;48.810;9.282;2022-11-15T15:02:53;22.50;51.10
1367;DHT22;16877;48.810;9.282;2022-11-15T15:05:22;22.50;51.30
1367;DHT22;16877;48.810;9.282;2022-11-15T15:07:50;22.50;51.50
1367;DHT22;16877;48.810;9.282;2022-11-15T15:10:17;22.50;51.70
1367;DHT22;16877;48.810;9.282;2022-11-15T15:12:45;22.50;51.90
1367;DHT22;16877;48.810;9.282;2022-11-15T15:15:13;22.50;52.10
1367;DHT22;16877;48.810;9.282;2022-11-15T15:17:40;22.50;52.80
1367;DHT22;16877;48.810;9.282;2022-11-15T15:20:08;22.60;53.60
1367;DHT22;16877;48.810;9.282;2022-11-15T15:22:35;22.60;52.90
1367;DHT22;16877;48.810;9.282;2022-11-15T15:25:02;22.60;52.80
1367;DHT22;16877;48.810;9.282;2022-11-15T15:27:29;22.50;52.60
1367;DHT22;16877;48.810;9.282;2022-11-15T15:29:57;22.40;52.20
1367;DHT22;16877;48.810;9.282;2022-11-15T15:32:24;22.40;52.00
1367;DHT22;16877;48.810;9.282;2022-11-15T15:34:51;22.20;51.60
1367;DHT22;16877;48.810;9.282;2022-11-15T15:37:23;22.20;51.30
1367;DHT22;16877;48.810;9.282;2022-11-15T15:39:50;22.10;51.20
1367;DHT22;16877;48.810;9.282;2022-11-15T15:42:18;21.90;51.10
1367;DHT22;16877;48.810;9.282;2022-11-15T15:44:45;21.90;51.10
1367;DHT22;16877;48.810;9.282;2022-11-15T15:47:16;21.90;51.10
1367;DHT22;16877;48.810;9.282;2022-11-15T15:49:43;21.80;51.00
1367;DHT22;16877;48.810;9.282;2022-11-15T15:52:10;21.70;50.90
1367;DHT22;16877;48.810;9.282;2022-11-15T15:54:37;21.70;50.80
1367;DHT22;16877;48.810;9.282;2022-11-15T15:57:06;21.60;50.70
1367;DHT22;16877;48.810;9.282;2022-11-15T15:59:33;21.60;50.70
1367;DHT22;16877;48.810;9.282;2022-11-15T16:02:00;21.60;50.60
1367;DHT22;16877;48.810;9.282;2022-11-15T16:04:28;21.50;50.50
1367;DHT22;16877;48.810;9.282;2022-11-15T16:06:58;21.50;50.50
1367;DHT22;16877;48.810;9.282;2022-11-15T16:09:25;21.50;50.50
1367;DHT22;16877;48.810;9.282;2022-11-15T16:12:06;21.40;50.30